Du har inga inställningar för hoppväder.nu

Hoppväder.nu

Senast uppdaterat 01:21

UTC-tid

2019-12-06 kl. 00:21


Sol och måne

Solen går upp 8:42 och går ner 15:01 (beräknade cirkatider)
Nästa fullmåne blir om 6 dagar (2019-12-12)

METAR

ESOE (Örebro)
(31 minuter sedan)
ESOE 052350Z 21016KT 9999 -RA BKN015 06/04 Q0991=



ESOK (Karlstad)
(31 minuter sedan)
ESOK 052350Z AUTO 20011KT 7000 -RA FEW007/// SCT012/// BKN016/// 05/04 Q0989 REDZ=



ESGR (Skövde)
(31 minuter sedan)
ESGR 052350Z AUTO 20011KT 9999 -RA BKN020/// OVC027/// 06/04 Q0992=



ESSD (Borlänge)
(31 minuter sedan)
ESSD 052350Z AUTO 23011KT 9999 OVC015/// 06/03 Q0987=



ESOW (Västerås)
(31 minuter sedan)
ESOW 052350Z AUTO 21015KT 7000 DZ OVC022/// 06/03 Q0991 REDZ REUP=



TAF

ESOE (Örebro)
(51 minuter sedan)
ESOE 052330Z 0600/0609 22015KT 9999 -RA BKN016 TEMPO 0600/0609 2500 RA BKN008=



ESOK (Karlstad)
(411 minuter sedan)
ESOK 051730Z 0518/0521 22020G32KT 9999 BKN025 PROB40 0520/0521 4500 -RA=



ESGR (Skövde)
ESGR



ESSD (Borlänge)
ESSD



ESOW (Västerås)
(411 minuter sedan)
ESOW 051730Z 0518/0522 22015G25KT 9999 BKN025=





Kodnycklar till TAF och METAR






LHP

(Örebro är område G2a i Södra delen)

Prognos är inte uppdaterad




Spotting

Hur fungerar spotthjälpen och Vindkartan?

Markvind är ca 0 m/s.



Vindkartan

Senast uppdaterad 01:21




All data kommer från LFV.se